Powhatan Point, Ohio
Current Conditions -  °F | °C
As of 10:53 AM on Thursday 18 Dec 2014 (Local Time) from KHLG Reporting Station
Overcast Overcast  
Wind Chill: 18°   Ceiling: 2100
Heat Index: 27°   Visibility: 10mi
Dew Point: 20°   Wind: 9mph
Humidity: 75%   Direction: 260°W
Pressure: 30.21"   Gusts: NA
Location:  39.86°N, 80.82°W
Report Text: KHLG 181553Z 26008KT 10SM OVC021 M03/M07 A3021 RMK AO2 SLP248 T10281067
Loading
Personal Weather Stations






























Interactive Weather Map New forecast layout! Learn more

10-Day Weather Forecast

Advertisements
Track Severe Weather on mobile